Time;durP1;ratioP1;P1;durP2;ratioP2;P2;SDS_P1;SDS_P2;PMS_P1;PMS_P2;Temp;Humidity;BMP_temperature;BMP_pressure;BME280_temperature;BME280_humidity;BME280_pressure;Samples;Min_cycle;Max_cycle;Signal;HPM_P1;HPM_P2
2022/08/17 00:00:59;;;;;;;16.10;9.00;;;22.90;99.90;;;;;;6213584;23;20417;-77
2022/08/17 00:03:30;;;;;;;11.98;8.45;;;22.90;99.90;;;;;;6213032;23;20424;-77
2022/08/17 00:06:05;;;;;;;20.67;8.52;;;22.80;99.90;;;;;;6212982;23;20017;-76
2022/08/17 00:08:46;;;;;;;20.38;9.05;;;22.80;99.90;;;;;;6211385;23;20424;-77
2022/08/17 00:11:19;;;;;;;11.65;8.48;;;22.80;99.90;;;;;;6213292;23;20084;-77
2022/08/17 00:13:49;;;;;;;13.50;8.75;;;22.80;99.90;;;;;;6211470;23;20088;-76
2022/08/17 00:16:21;;;;;;;13.88;8.70;;;22.80;99.90;;;;;;6213280;23;20024;-76
2022/08/17 00:18:47;;;;;;;18.42;8.45;;;22.80;99.90;;;;;;6212931;23;20005;-76
2022/08/17 00:21:14;;;;;;;19.27;8.80;;;22.80;99.90;;;;;;6213243;23;20004;-76
2022/08/17 00:23:41;;;;;;;14.20;9.07;;;22.80;99.90;;;;;;6212662;23;20440;-76
2022/08/17 00:26:08;;;;;;;12.07;9.00;;;22.80;99.90;;;;;;6213453;23;20016;-76
2022/08/17 00:28:33;;;;;;;11.20;8.52;;;22.80;99.90;;;;;;6212513;23;20025;-76
2022/08/17 00:31:00;;;;;;;10.27;8.40;;;22.80;99.90;;;;;;6213178;23;20000;-76
2022/08/17 00:33:28;;;;;;;14.35;9.02;;;22.80;99.90;;;;;;6212962;23;20301;-77
2022/08/17 00:35:55;;;;;;;11.77;8.27;;;22.80;99.90;;;;;;6213215;23;20005;-76
2022/08/17 00:38:22;;;;;;;12.05;8.70;;;22.80;99.90;;;;;;6212479;23;20087;-76
2022/08/17 00:40:53;;;;;;;12.93;8.25;;;22.80;99.90;;;;;;6211367;23;20067;-76
2022/08/17 00:43:35;;;;;;;13.30;8.45;;;22.80;99.90;;;;;;6212595;23;20001;-76
2022/08/17 00:46:03;;;;;;;;;;;22.80;99.90;;;;;;6212027;23;20032;-76
2022/08/17 00:48:30;;;;;;;12.40;8.88;;;22.80;99.90;;;;;;6211112;23;20308;-77
2022/08/17 00:51:02;;;;;;;17.05;8.40;;;22.80;99.90;;;;;;6212890;23;20299;-76
2022/08/17 00:53:30;;;;;;;14.15;9.18;;;22.80;99.90;;;;;;6210735;23;20159;-77
2022/08/17 00:55:58;;;;;;;11.25;8.82;;;22.70;99.90;;;;;;6211226;23;20435;-76
2022/08/17 00:58:24;;;;;;;11.68;8.45;;;22.70;99.90;;;;;;6212662;23;20001;-77
2022/08/17 01:00:51;;;;;;;12.85;8.55;;;22.70;99.90;;;;;;6213190;23;19993;-76
2022/08/17 01:03:24;;;;;;;13.98;8.48;;;22.70;99.90;;;;;;6210822;23;20030;-76
2022/08/17 01:05:52;;;;;;;10.90;8.23;;;22.70;99.90;;;;;;6212791;23;20591;-76
2022/08/17 01:08:23;;;;;;;18.65;9.32;;;22.60;99.90;;;;;;6212215;23;20047;-76
2022/08/17 01:10:52;;;;;;;19.40;8.50;;;22.60;99.90;;;;;;6211076;23;20005;-77
2022/08/17 01:13:19;;;;;;;16.10;8.93;;;22.60;99.90;;;;;;6212245;23;19997;-77
2022/08/17 01:15:51;;;;;;;19.48;9.05;;;22.60;99.90;;;;;;6212956;23;20428;-76
2022/08/17 01:18:17;;;;;;;16.48;8.40;;;22.60;99.90;;;;;;6212290;23;20047;-77
2022/08/17 01:20:52;;;;;;;13.63;9.10;;;22.60;99.90;;;;;;6211086;23;20005;-77
2022/08/17 01:23:21;;;;;;;12.75;8.75;;;22.60;99.90;;;;;;6212600;23;20007;-77
2022/08/17 01:25:52;;;;;;;11.95;8.93;;;22.50;99.90;;;;;;6212713;23;20013;-77
2022/08/17 01:28:19;;;;;;;11.77;8.32;;;22.50;99.90;;;;;;6210409;23;20001;-76
2022/08/17 01:30:45;;;;;;;12.75;8.63;;;22.50;99.90;;;;;;6212810;23;20063;-77
2022/08/17 01:33:11;;;;;;;15.30;8.70;;;22.50;99.90;;;;;;6212442;23;19996;-76
2022/08/17 01:35:38;;;;;;;11.63;8.80;;;22.50;99.90;;;;;;6213036;23;20382;-76
2022/08/17 01:38:05;;;;;;;15.43;9.00;;;22.50;99.90;;;;;;6212159;23;20075;-76
2022/08/17 01:40:37;;;;;;;12.82;8.75;;;22.40;99.90;;;;;;6212665;23;20023;-76
2022/08/17 01:43:11;;;;;;;15.88;9.45;;;22.40;99.90;;;;;;6212353;23;20027;-76
2022/08/17 01:45:44;;;;;;;12.88;8.55;;;22.40;99.90;;;;;;6212625;23;20012;-76
2022/08/17 01:48:10;;;;;;;11.13;8.80;;;22.40;99.90;;;;;;6212331;23;20004;-75
2022/08/17 01:50:38;;;;;;;10.30;8.70;;;22.40;99.90;;;;;;6212647;23;20008;-76
2022/08/17 01:53:13;;;;;;;12.95;9.35;;;22.30;99.90;;;;;;6213863;23;20003;-75
2022/08/17 01:56:01;;;;;;;15.25;9.07;;;22.30;99.90;;;;;;6214484;23;20032;-76
2022/08/17 01:58:27;;;;;;;16.85;8.85;;;22.30;99.90;;;;;;6213545;23;20022;-76
2022/08/17 02:00:54;;;;;;;13.23;8.63;;;22.30;99.90;;;;;;6214668;23;20008;-76
2022/08/17 02:03:22;;;;;;;10.90;8.45;;;22.30;99.90;;;;;;6214066;23;20012;-76
2022/08/17 02:05:49;;;;;;;10.05;8.30;;;22.30;99.90;;;;;;6214770;23;20009;-76
2022/08/17 02:08:16;;;;;;;13.68;8.40;;;22.20;99.90;;;;;;6213831;23;19996;-75
2022/08/17 02:10:44;;;;;;;11.68;8.77;;;22.20;99.90;;;;;;6214336;23;20008;-75
2022/08/17 02:13:10;;;;;;;16.08;9.38;;;22.20;99.90;;;;;;6212675;23;20019;-76
2022/08/17 02:15:36;;;;;;;12.77;8.32;;;22.20;99.90;;;;;;6214578;23;20008;-75
2022/08/17 02:18:04;;;;;;;12.27;8.88;;;22.20;99.90;;;;;;6213781;23;20520;-76
2022/08/17 02:20:30;;;;;;;11.05;8.52;;;22.10;99.90;;;;;;6212915;23;20024;-75
2022/08/17 02:23:00;;;;;;;12.23;9.00;;;22.10;99.90;;;;;;6214481;23;20003;-75
2022/08/17 02:25:27;;;;;;;10.05;8.52;;;22.10;99.90;;;;;;6212667;23;20048;-76
2022/08/17 02:27:53;;;;;;;12.88;8.57;;;22.10;99.90;;;;;;6213733;23;20024;-76
2022/08/17 02:30:19;;;;;;;19.70;8.38;;;22.10;99.90;;;;;;6214340;23;20062;-75
2022/08/17 02:32:45;;;;;;;15.40;8.27;;;22.10;99.90;;;;;;6213935;23;19997;-75
2022/08/17 02:35:12;;;;;;;14.90;8.70;;;22.10;99.90;;;;;;6214269;23;20001;-75
2022/08/17 02:37:38;;;;;;;13.80;8.80;;;22.10;99.90;;;;;;6213780;23;20035;-75
2022/08/17 02:40:05;;;;;;;15.68;9.02;;;22.00;99.90;;;;;;6213864;23;20322;-75
2022/08/17 02:42:33;;;;;;;18.13;8.63;;;22.00;99.90;;;;;;6212120;23;20096;-77
2022/08/17 02:45:01;;;;;;;14.65;8.63;;;22.10;99.90;;;;;;6214290;23;20009;-76
2022/08/17 02:47:27;;;;;;;16.60;8.95;;;22.10;99.90;;;;;;6213854;23;20004;-76
2022/08/17 02:49:53;;;;;;;11.63;8.60;;;22.00;99.90;;;;;;6214072;23;19996;-76
2022/08/17 02:52:20;;;;;;;13.68;9.05;;;22.00;99.90;;;;;;6213470;23;20000;-75
2022/08/17 02:54:46;;;;;;;12.68;8.63;;;22.00;99.90;;;;;;6213804;23;20001;-75
2022/08/17 02:57:12;;;;;;;15.13;8.65;;;22.00;99.90;;;;;;6212216;23;20333;-75
2022/08/17 02:59:39;;;;;;;15.30;9.25;;;22.00;99.90;;;;;;6212250;23;20079;-75
2022/08/17 03:02:10;;;;;;;13.02;8.80;;;22.00;99.90;;;;;;6211895;23;20009;-75
2022/08/17 03:04:36;;;;;;;14.52;8.30;;;22.00;99.90;;;;;;6213830;23;20067;-75
2022/08/17 03:07:04;;;;;;;15.43;8.80;;;22.00;99.90;;;;;;6213654;23;20324;-76
2022/08/17 03:09:30;;;;;;;11.40;8.35;;;22.00;99.90;;;;;;6213509;23;20004;-78
2022/08/17 03:12:11;;;;;;;13.20;8.85;;;22.00;99.90;;;;;;6213667;23;20074;-75
2022/08/17 03:14:41;;;;;;;13.00;8.73;;;22.00;99.90;;;;;;6213919;23;19989;-76
2022/08/17 03:17:11;;;;;;;13.35;8.38;;;22.00;99.90;;;;;;6213493;23;20333;-77
2022/08/17 03:19:37;;;;;;;19.73;8.48;;;21.90;99.90;;;;;;6213804;23;19997;-76
2022/08/17 03:22:04;;;;;;;9.90;8.45;;;21.90;99.90;;;;;;6212690;23;20431;-76
2022/08/17 03:24:30;;;;;;;16.38;9.13;;;21.90;99.90;;;;;;6213410;23;20016;-76
2022/08/17 03:26:56;;;;;;;15.55;9.35;;;21.90;99.90;;;;;;6213629;23;20013;-76
2022/08/17 03:29:21;;;;;;;11.35;8.80;;;21.90;99.90;;;;;;6213513;23;20127;-76
2022/08/17 03:31:48;;;;;;;14.68;9.15;;;21.90;99.90;;;;;;6211920;23;20012;-75
2022/08/17 03:34:14;;;;;;;14.43;8.68;;;21.90;99.90;;;;;;6213624;23;20005;-75
2022/08/17 03:36:40;;;;;;;13.63;8.70;;;21.90;99.90;;;;;;6211736;23;20005;-74
2022/08/17 03:39:06;;;;;;;11.55;8.63;;;22.00;99.90;;;;;;6213038;23;20009;-75
2022/08/17 03:41:32;;;;;;;15.13;8.88;;;22.00;99.90;;;;;;6214055;23;20009;-75
2022/08/17 03:43:58;;;;;;;13.30;8.77;;;21.90;99.90;;;;;;6211705;23;20426;-74
2022/08/17 03:57:24;;;;;;;12.93;9.00;;;21.90;99.90;;;;;;6213184;23;20040;-75
2022/08/17 03:59:52;;;;;;;12.13;8.85;;;21.90;99.90;;;;;;6213520;23;19997;-75
2022/08/17 04:02:32;;;;;;;11.50;8.63;;;21.80;99.90;;;;;;6211228;23;20062;-74
2022/08/17 04:04:58;;;;;;;12.50;8.68;;;21.80;99.90;;;;;;6213485;23;20062;-75
2022/08/17 04:07:27;;;;;;;12.70;9.07;;;21.80;99.90;;;;;;6211382;23;20075;-75
2022/08/17 04:09:53;;;;;;;11.32;7.88;;;21.80;99.90;;;;;;6212989;23;20001;-75
2022/08/17 04:12:21;;;;;;;15.48;8.48;;;21.80;99.90;;;;;;6211236;23;20005;-75
2022/08/17 04:14:47;;;;;;;10.85;8.35;;;21.80;99.90;;;;;;6213160;23;20391;-75
2022/08/17 04:17:13;;;;;;;12.60;8.23;;;21.80;99.90;;;;;;6211451;23;20016;-75
2022/08/17 04:19:39;;;;;;;11.30;7.93;;;21.80;99.90;;;;;;6212961;23;19997;-75
2022/08/17 04:22:05;;;;;;;12.73;8.45;;;21.80;99.90;;;;;;6212942;23;20008;-75
2022/08/17 04:24:32;;;;;;;10.38;8.30;;;21.80;99.90;;;;;;6211398;23;20440;-75
2022/08/17 04:26:57;;;;;;;9.63;7.75;;;21.80;99.90;;;;;;6211329;23;20046;-75
2022/08/17 04:29:24;;;;;;;14.73;7.95;;;21.80;99.90;;;;;;6211561;23;20391;-75
2022/08/17 04:31:51;;;;;;;9.70;7.95;;;21.80;99.90;;;;;;6212822;23;20000;-76
2022/08/17 04:34:18;;;;;;;11.85;8.10;;;21.80;99.90;;;;;;6212858;23;20083;-76
2022/08/17 04:36:44;;;;;;;12.77;8.07;;;21.80;99.90;;;;;;6212841;23;20339;-76
2022/08/17 04:39:10;;;;;;;12.07;8.25;;;21.80;99.90;;;;;;6212722;23;20000;-76
2022/08/17 04:44:20;;;;;;;15.48;7.85;;;21.80;99.90;;;;;;6212900;23;20011;-75
2022/08/17 04:46:46;;;;;;;8.18;7.40;;;21.80;99.90;;;;;;6213031;23;20043;-75
2022/08/17 04:49:12;;;;;;;12.02;8.23;;;21.90;99.90;;;;;;6211100;23;20012;-74
2022/08/17 04:51:43;;;;;;;11.40;7.38;;;21.90;99.90;;;;;;6212953;23;20348;-75
2022/08/17 04:54:15;;;;;;;11.07;7.63;;;21.90;99.90;;;;;;6212591;23;20007;-74
2022/08/17 04:56:41;;;;;;;9.52;7.53;;;22.00;99.90;;;;;;6211370;23;20087;-75
2022/08/17 04:59:16;;;;;;;9.40;7.10;;;22.00;99.90;;;;;;6212726;23;20031;-75
2022/08/17 05:01:45;;;;;;;11.70;7.75;;;22.10;99.90;;;;;;6212888;23;20001;-75
2022/08/17 05:04:18;;;;;;;11.77;7.22;;;22.10;99.90;;;;;;6212610;23;20339;-75
2022/08/17 05:06:44;;;;;;;12.50;7.78;;;22.20;99.90;;;;;;6212718;23;20092;-74
2022/08/17 05:09:10;;;;;;;9.43;7.22;;;22.20;99.90;;;;;;6212577;23;20309;-74
2022/08/17 05:11:36;;;;;;;10.75;7.20;;;22.20;99.90;;;;;;6213103;23;20440;-76
2022/08/17 05:14:02;;;;;;;11.40;7.03;;;22.30;99.90;;;;;;6212029;23;19997;-75
2022/08/17 05:16:29;;;;;;;11.93;7.28;;;22.30;99.90;;;;;;6212853;23;20335;-77
2022/08/17 05:18:57;;;;;;;9.32;6.93;;;22.30;99.90;;;;;;6212306;23;20390;-77
2022/08/17 05:21:24;;;;;;;10.57;7.60;;;22.30;99.90;;;;;;6212689;23;20431;-77
2022/08/17 05:23:50;;;;;;;9.90;7.28;;;22.40;99.90;;;;;;6212211;23;20087;-75
2022/08/17 05:26:18;;;;;;;8.63;6.90;;;22.40;99.90;;;;;;6213180;23;20047;-75
2022/08/17 05:28:44;;;;;;;8.95;7.13;;;22.50;99.90;;;;;;6214091;23;20000;-76
2022/08/17 05:31:11;;;;;;;8.68;7.03;;;22.50;99.90;;;;;;6214977;23;20313;-76
2022/08/17 05:33:39;;;;;;;14.68;7.10;;;22.60;99.90;;;;;;6213011;23;20035;-75
2022/08/17 05:36:10;;;;;;;10.50;6.72;;;22.70;99.90;;;;;;6213452;23;20313;-76
2022/08/17 05:38:36;;;;;;;10.55;7.28;;;22.70;99.90;;;;;;6214257;23;20001;-76
2022/08/17 05:41:04;;;;;;;8.95;6.93;;;22.70;99.90;;;;;;6213242;23;20336;-76
2022/08/17 05:43:32;;;;;;;9.90;6.97;;;22.80;99.90;;;;;;6214029;23;20004;-76
2022/08/17 05:46:04;;;;;;;9.52;6.88;;;22.80;99.90;;;;;;6212897;23;20009;-76
2022/08/17 05:48:35;;;;;;;9.52;6.43;;;22.90;99.90;;;;;;6214388;23;20001;-75
2022/08/17 05:51:17;;;;;;;8.93;7.10;;;22.90;99.90;;;;;;6213143;23;20010;-76
2022/08/17 05:54:03;;;;;;;11.52;6.88;;;23.00;99.90;;;;;;6214259;23;20004;-76
2022/08/17 05:56:41;;;;;;;9.48;6.90;;;23.10;99.90;;;;;;6213155;23;20428;-76
2022/08/17 05:59:47;;;;;;;9.43;7.13;;;23.20;99.90;;;;;;6213900;23;20059;-76
2022/08/17 06:02:39;;;;;;;9.27;6.40;;;23.20;99.90;;;;;;6212634;23;20015;-76
2022/08/17 06:05:27;;;;;;;10.50;6.75;;;23.30;99.90;;;;;;6214877;23;20092;-76
2022/08/17 06:08:22;;;;;;;11.68;7.00;;;23.30;99.90;;;;;;6212038;23;20076;-76
2022/08/17 06:10:56;;;;;;;14.48;7.22;;;23.50;99.90;;;;;;6213173;23;20032;-77
2022/08/17 06:13:30;;;;;;;12.00;6.72;;;23.50;99.90;;;;;;6213920;23;20008;-76
2022/08/17 06:16:19;;;;;;;12.75;7.30;;;23.50;99.90;;;;;;6214353;23;20009;-77
2022/08/17 06:18:52;;;;;;;11.48;7.13;;;23.70;99.90;;;;;;6197572;23;20088;-77
2022/08/17 06:21:19;;;;;;;11.13;6.80;;;23.80;99.90;;;;;;6212430;23;20004;-77
2022/08/17 06:24:18;;;;;;;7.63;6.22;;;23.80;99.90;;;;;;6211421;23;20008;-76
2022/08/17 06:26:44;;;;;;;10.68;6.82;;;23.90;99.90;;;;;;6212099;23;20008;-76
2022/08/17 06:29:36;;;;;;;10.07;6.97;;;24.00;99.90;;;;;;6210485;23;20028;-77
2022/08/17 06:32:04;;;;;;;12.95;6.60;;;24.00;99.90;;;;;;6211382;23;20019;-76
2022/08/17 06:34:31;;;;;;;11.98;7.65;;;24.10;99.90;;;;;;6212268;23;20000;-77
2022/08/17 06:37:17;;;;;;;12.90;7.47;;;24.20;99.90;;;;;;6212633;23;20067;-78
2022/08/17 06:40:34;;;;;;;13.10;6.93;;;24.30;99.90;;;;;;6212687;23;20001;-81
2022/08/17 06:43:13;;;;;;;10.77;6.55;;;24.30;99.90;;;;;;6212549;23;20005;-82
2022/08/17 06:46:17;;;;;;;17.15;7.07;;;24.40;99.90;;;;;;6213946;23;20008;-81
2022/08/17 06:48:51;;;;;;;12.52;6.97;;;24.50;99.90;;;;;;6151794;23;20043;-81
2022/08/17 06:51:33;;;;;;;11.05;6.93;;;24.50;99.90;;;;;;6213665;23;20008;-80
2022/08/17 06:54:06;;;;;;;13.73;6.72;;;24.60;99.90;;;;;;6212818;23;20080;-79
2022/08/17 06:56:46;;;;;;;12.05;6.72;;;24.70;99.90;;;;;;6213748;23;20088;-78
2022/08/17 06:59:17;;;;;;;9.63;6.70;;;24.70;99.90;;;;;;6212499;23;20059;-80
2022/08/17 07:01:45;;;;;;;12.43;7.22;;;24.80;99.90;;;;;;6212860;23;19993;-79
2022/08/17 07:04:20;;;;;;;18.25;7.00;;;24.80;99.90;;;;;;6210581;23;20340;-82
2022/08/17 07:06:57;;;;;;;14.35;7.07;;;24.90;99.90;;;;;;6213902;23;20016;-81
2022/08/17 07:09:34;;;;;;;12.82;6.57;;;25.00;99.90;;;;;;6213546;23;20051;-80
2022/08/17 07:12:21;;;;;;;13.85;6.47;;;25.00;99.90;;;;;;6213936;23;20055;-78
2022/08/17 07:15:06;;;;;;;10.52;6.13;;;25.10;99.90;;;;;;6213610;23;20000;-78
2022/08/17 07:17:33;;;;;;;11.70;6.82;;;25.20;99.90;;;;;;6212877;23;20023;-78
2022/08/17 07:20:08;;;;;;;13.38;6.47;;;25.30;99.90;;;;;;6210807;23;20055;-79
2022/08/17 07:23:02;;;;;;;11.18;6.47;;;25.40;99.90;;;;;;6211844;23;20101;-80
2022/08/17 07:25:29;;;;;;;13.80;7.22;;;25.40;99.90;;;;;;6212034;23;20012;-78
2022/08/17 07:27:59;;;;;;;11.27;6.55;;;25.50;99.90;;;;;;6212232;23;20387;-80
2022/08/17 07:30:40;;;;;;;14.35;7.13;;;25.50;99.90;;;;;;6212470;23;20004;-79
2022/08/17 07:33:09;;;;;;;15.15;7.38;;;25.50;99.90;;;;;;6210996;23;20000;-81
2022/08/17 07:35:39;;;;;;;13.20;6.53;;;25.50;99.90;;;;;;6211188;23;20005;-77
2022/08/17 07:38:12;;;;;;;15.02;6.82;;;25.50;99.90;;;;;;6211102;23;19999;-79
2022/08/17 07:40:47;;;;;;;9.23;6.43;;;25.50;99.90;;;;;;6208909;23;20001;-79
2022/08/17 07:43:37;;;;;;;13.27;7.05;;;25.50;99.90;;;;;;6211151;23;20054;-77
2022/08/17 07:49:13;;;;;;;13.40;6.82;;;25.70;99.90;;;;;;6212749;23;20008;-80
2022/08/17 07:51:56;;;;;;;17.07;7.10;;;25.70;99.90;;;;;;6213089;23;20146;-78
2022/08/17 07:54:30;;;;;;;11.23;6.20;;;25.80;99.90;;;;;;6212894;23;20570;-76
2022/08/17 07:57:03;;;;;;;13.07;6.70;;;25.90;99.90;;;;;;6211885;23;20008;-76
2022/08/17 07:59:28;;;;;;;;;;;26.00;99.90;;;;;;6212437;23;20003;-78
2022/08/17 08:01:57;;;;;;;14.57;6.95;;;26.10;99.90;;;;;;6211036;23;19943;-76
2022/08/17 08:04:45;;;;;;;14.73;7.20;;;26.10;99.90;;;;;;6211734;23;20107;-76
2022/08/17 08:07:25;;;;;;;10.70;6.97;;;26.00;99.90;;;;;;6212029;23;20001;-75
2022/08/17 08:10:10;;;;;;;11.38;6.25;;;25.90;99.90;;;;;;6211405;23;20411;-75
2022/08/17 08:12:47;;;;;;;12.88;6.63;;;25.90;99.90;;;;;;6210403;23;20103;-80
2022/08/17 08:15:17;;;;;;;10.60;6.30;;;25.90;99.90;;;;;;6214131;23;20004;-83
2022/08/17 08:17:51;;;;;;;10.90;6.68;;;26.00;99.90;;;;;;6210960;23;20321;-83
2022/08/17 08:20:18;;;;;;;12.85;5.97;;;26.10;99.90;;;;;;6211701;23;20000;-89
2022/08/17 08:23:09;;;;;;;18.92;7.35;;;26.10;99.90;;;;;;6212876;23;20004;-82
2022/08/17 08:25:41;;;;;;;13.10;7.50;;;26.20;99.90;;;;;;6212990;23;20372;-83
2022/08/17 08:28:23;;;;;;;10.82;6.93;;;26.20;99.90;;;;;;6210649;23;20424;-81
2022/08/17 08:30:57;;;;;;;16.85;7.88;;;26.20;99.90;;;;;;6211374;23;20005;-80
2022/08/17 08:33:35;;;;;;;15.20;8.18;;;26.10;99.90;;;;;;6210023;23;20013;-83
2022/08/17 08:36:22;;;;;;;15.38;7.40;;;26.20;99.90;;;;;;6211239;23;20000;-81
2022/08/17 08:39:10;;;;;;;18.13;7.38;;;26.20;99.90;;;;;;6211552;23;20378;-85
2022/08/17 08:41:46;;;;;;;13.40;7.30;;;26.20;99.90;;;;;;6211624;23;20020;-80
2022/08/17 08:44:23;;;;;;;9.70;6.28;;;26.20;99.90;;;;;;6213136;23;20020;-80
2022/08/17 08:47:05;;;;;;;17.63;7.03;;;26.30;99.90;;;;;;6212031;23;20020;-82
2022/08/17 08:49:30;;;;;;;14.75;6.60;;;26.20;99.90;;;;;;6212718;23;20011;-85
2022/08/17 08:52:02;;;;;;;16.23;6.65;;;26.20;99.90;;;;;;6211897;23;20399;-82
2022/08/17 08:54:55;;;;;;;11.40;6.78;;;26.30;99.90;;;;;;6212621;23;20000;-80
2022/08/17 08:57:29;;;;;;;12.18;6.55;;;26.40;99.90;;;;;;6210792;23;20035;-80
2022/08/17 09:00:08;;;;;;;11.40;7.22;;;26.50;99.90;;;;;;6210935;23;19996;-80
2022/08/17 09:02:46;;;;;;;15.32;8.07;;;26.50;99.90;;;;;;6212191;23;20007;-79
2022/08/17 09:05:31;;;;;;;16.63;8.00;;;26.50;99.90;;;;;;6212740;23;20008;-84
2022/08/17 09:07:57;;;;;;;13.52;7.30;;;26.50;99.90;;;;;;6211579;23;20035;-80
2022/08/17 09:10:29;;;;;;;11.00;7.32;;;26.50;99.90;;;;;;6210153;23;20004;-81
2022/08/17 09:13:27;;;;;;;13.25;7.70;;;26.50;99.90;;;;;;6211556;23;20039;-80
2022/08/17 09:15:58;;;;;;;13.15;6.93;;;26.40;99.90;;;;;;6212477;23;20055;-82
2022/08/17 09:18:38;;;;;;;20.57;8.50;;;26.50;99.90;;;;;;6211002;23;20021;-81
2022/08/17 09:21:22;;;;;;;13.15;7.25;;;26.50;99.90;;;;;;6211591;23;20009;-81
2022/08/17 09:23:58;;;;;;;9.52;6.90;;;26.60;99.90;;;;;;6212265;23;20055;-82
2022/08/17 09:26:38;;;;;;;10.88;6.95;;;26.60;99.90;;;;;;6211655;23;20024;-81
2022/08/17 09:29:08;;;;;;;14.57;6.82;;;26.50;99.90;;;;;;6213287;23;20071;-84
2022/08/17 09:31:41;;;;;;;15.00;7.03;;;26.50;99.90;;;;;;6212076;23;20086;-81
2022/08/17 09:34:13;;;;;;;14.20;6.53;;;26.50;99.90;;;;;;6210132;23;20012;-79
2022/08/17 09:37:17;;;;;;;11.82;6.70;;;26.60;99.90;;;;;;6212317;23;20081;-80
2022/08/17 09:43:37;;;;;;;15.55;6.65;;;26.60;99.90;;;;;;6212498;23;20024;-80
2022/08/17 09:46:26;;;;;;;16.70;6.90;;;26.80;99.90;;;;;;6210654;23;20013;-80
2022/08/17 09:49:10;;;;;;;15.85;6.97;;;27.00;99.90;;;;;;6209866;23;20035;-80
2022/08/17 09:51:44;;;;;;;17.75;7.03;;;27.00;99.90;;;;;;6210562;23;20001;-80
2022/08/17 09:54:31;;;;;;;12.52;6.63;;;27.00;99.90;;;;;;6212662;23;20055;-80
2022/08/17 09:57:03;;;;;;;11.65;6.35;;;27.10;99.90;;;;;;6212411;23;20039;-80
2022/08/17 09:59:46;;;;;;;15.77;6.88;;;27.20;99.90;;;;;;6211181;23;20003;-78
2022/08/17 10:02:34;;;;;;;12.02;7.40;;;27.20;99.90;;;;;;6211880;23;20001;-79
2022/08/17 10:05:21;;;;;;;15.13;6.97;;;27.00;99.90;;;;;;6210930;23;20322;-74
2022/08/17 10:08:02;;;;;;;15.02;6.88;;;27.00;99.90;;;;;;6210580;23;20287;-75
2022/08/17 10:10:38;;;;;;;13.32;6.13;;;26.90;99.90;;;;;;6212612;23;20076;-76
2022/08/17 10:13:42;;;;;;;14.13;7.80;;;26.80;99.90;;;;;;6211002;23;20132;-75
2022/08/17 10:16:20;;;;;;;12.10;6.65;;;26.80;99.90;;;;;;6068879;23;20065;-75
2022/08/17 10:18:57;;;;;;;18.13;7.03;;;27.00;99.90;;;;;;6068385;23;20022;-75
2022/08/17 10:27:13;;;;;;;12.73;6.35;;;27.00;99.90;;;;;;6213837;23;20035;-75
2022/08/17 10:29:45;;;;;;;17.13;6.75;;;27.10;99.90;;;;;;6214183;23;20321;-75
2022/08/17 10:32:23;;;;;;;15.85;7.30;;;27.10;99.90;;;;;;6213907;23;20012;-75
2022/08/17 10:35:07;;;;;;;11.35;6.75;;;27.00;99.90;;;;;;6214395;23;20004;-76
2022/08/17 10:37:39;;;;;;;15.80;7.35;;;26.90;99.90;;;;;;6211968;23;20012;-75
2022/08/17 10:40:31;;;;;;;14.25;7.18;;;26.90;99.90;;;;;;6214307;23;20001;-75
2022/08/17 10:43:21;;;;;;;12.88;7.50;;;27.00;99.90;;;;;;6213920;23;20009;-75
2022/08/17 10:45:51;;;;;;;18.90;7.07;;;27.10;99.90;;;;;;6213847;23;20017;-75
2022/08/17 10:48:35;;;;;;;21.33;7.70;;;27.20;99.90;;;;;;6213472;23;20004;-75
2022/08/17 10:51:06;;;;;;;19.65;7.55;;;27.20;99.90;;;;;;6214188;23;20001;-75
2022/08/17 10:53:32;;;;;;;12.80;6.70;;;27.30;99.90;;;;;;6212113;23;20055;-75
2022/08/17 10:56:12;;;;;;;19.77;7.43;;;27.30;99.90;;;;;;6214034;23;19997;-75
2022/08/17 10:58:53;;;;;;;13.18;7.25;;;27.30;99.90;;;;;;6211832;23;20005;-75
2022/08/17 11:01:31;;;;;;;13.25;7.28;;;27.30;99.90;;;;;;6214289;23;20082;-75
2022/08/17 11:04:03;;;;;;;19.98;7.45;;;27.40;99.90;;;;;;6213195;23;20004;-75
2022/08/17 11:06:29;;;;;;;;;;;27.30;99.90;;;;;;6214416;23;20016;-75
2022/08/17 11:09:21;;;;;;;16.85;7.55;;;27.40;99.90;;;;;;6213352;23;19931;-75
2022/08/17 11:12:07;;;;;;;12.63;7.28;;;27.50;99.90;;;;;;6212154;23;20573;-76
2022/08/17 11:14:50;;;;;;;11.00;7.07;;;27.40;99.90;;;;;;6213727;23;20001;-75
2022/08/17 11:17:28;;;;;;;20.20;7.55;;;27.50;99.90;;;;;;6213320;23;20043;-76
2022/08/17 11:20:07;;;;;;;15.73;7.45;;;27.40;99.90;;;;;;6213893;23;20050;-75
2022/08/17 11:22:58;;;;;;;13.95;7.20;;;27.50;99.90;;;;;;6213088;23;20432;-75
2022/08/17 11:25:37;;;;;;;18.30;7.35;;;27.60;99.90;;;;;;6213589;23;20015;-75
2022/08/17 11:28:19;;;;;;;14.25;7.30;;;27.50;99.90;;;;;;6211615;23;20001;-76
2022/08/17 11:30:58;;;;;;;15.43;7.68;;;27.50;99.90;;;;;;6212394;23;20479;-75
2022/08/17 11:33:33;;;;;;;14.50;7.65;;;27.50;99.90;;;;;;6213030;23;20076;-75
2022/08/17 11:36:30;;;;;;;13.90;7.03;;;27.50;99.90;;;;;;6213641;23;20013;-75
2022/08/17 11:38:56;;;;;;;16.17;7.70;;;27.60;99.90;;;;;;6197516;23;20012;-74
2022/08/17 11:41:47;;;;;;;25.55;7.45;;;27.40;99.90;;;;;;6211993;23;20095;-75
2022/08/17 11:44:41;;;;;;;15.40;7.68;;;27.60;99.90;;;;;;6213066;23;20091;-75
2022/08/17 11:53:37;;;;;;;12.80;6.90;;;27.80;99.90;;;;;;6213048;23;20336;-75
2022/08/17 11:56:08;;;;;;;11.82;7.43;;;28.00;99.90;;;;;;6211633;23;20000;-75
2022/08/17 11:58:44;;;;;;;15.40;8.02;;;28.00;99.90;;;;;;6212917;23;20001;-75
2022/08/17 12:01:10;;;;;;;16.30;7.25;;;27.90;99.90;;;;;;6212061;23;20090;-75
2022/08/17 12:03:41;;;;;;;13.73;7.32;;;27.80;99.90;;;;;;6211134;23;20042;-75
2022/08/17 12:06:28;;;;;;;15.63;7.82;;;27.90;99.90;;;;;;6213475;23;20016;-76
2022/08/17 12:09:00;;;;;;;12.57;7.07;;;28.10;99.90;;;;;;6212245;23;20000;-76
2022/08/17 12:11:41;;;;;;;19.67;7.32;;;28.30;99.90;;;;;;6213262;23;20005;-76
2022/08/17 12:14:09;;;;;;;15.32;6.95;;;29.30;99.90;;;;;;6212867;23;20051;-77
2022/08/17 12:16:34;;;;;;;10.77;6.07;;;30.90;99.90;;;;;;6213419;23;20043;-75
2022/08/17 12:19:01;;;;;;;11.73;6.07;;;32.30;99.90;;;;;;6212477;23;20000;-76
2022/08/17 12:21:43;;;;;;;12.98;6.28;;;33.50;99.90;;;;;;6213030;23;20001;-76
2022/08/17 12:24:17;;;;;;;12.55;5.97;;;34.30;99.90;;;;;;6213132;23;20071;-77
2022/08/17 12:26:51;;;;;;;9.82;5.43;;;34.80;99.90;;;;;;6212775;23;20008;-77
2022/08/17 12:29:17;;;;;;;8.85;5.38;;;35.00;99.90;;;;;;6212793;23;20007;-76
2022/08/17 12:31:46;;;;;;;9.13;5.70;;;35.20;99.90;;;;;;6213085;23;20009;-76
2022/08/17 12:34:37;;;;;;;12.18;6.38;;;35.60;99.90;;;;;;6213179;23;20008;-77
2022/08/17 12:37:23;;;;;;;9.25;5.60;;;36.00;99.90;;;;;;6211114;23;20004;-78
2022/08/17 12:40:25;;;;;;;7.18;4.13;;;35.90;99.90;;;;;;6212877;23;20080;-78
2022/08/17 12:42:57;;;;;;;9.50;4.95;;;36.10;99.90;;;;;;6212734;23;20001;-77
2022/08/17 12:45:35;;;;;;;12.13;5.20;;;36.30;99.90;;;;;;6213149;23;20046;-77
2022/08/17 12:48:11;;;;;;;11.18;4.90;;;36.30;99.90;;;;;;6212699;23;20008;-78
2022/08/17 12:50:44;;;;;;;8.65;4.93;;;36.40;99.90;;;;;;6213256;23;20005;-77
2022/08/17 12:56:33;;;;;;;10.55;5.00;;;36.30;99.90;;;;;;6212786;23;20077;-78
2022/08/17 12:59:00;;;;;;;12.05;5.38;;;37.00;99.90;;;;;;6212222;23;20040;-77
2022/08/17 13:01:26;;;;;;;14.63;5.53;;;37.30;99.90;;;;;;6212814;23;20079;-76
2022/08/17 13:03:56;;;;;;;9.75;4.80;;;37.30;99.90;;;;;;6212600;23;20028;-76
2022/08/17 13:06:34;;;;;;;9.10;5.10;;;37.80;99.90;;;;;;6212859;23;20004;-76
2022/08/17 13:09:17;;;;;;;16.38;5.65;;;38.30;99.90;;;;;;6212093;23;20003;-77
2022/08/17 13:11:53;;;;;;;14.55;5.22;;;38.30;99.30;;;;;;6211322;23;20087;-77
2022/08/17 13:14:19;;;;;;;12.15;4.93;;;38.40;98.70;;;;;;6212624;23;20384;-76
2022/08/17 13:17:00;;;;;;;10.02;4.53;;;38.50;98.40;;;;;;6212745;23;20012;-76
2022/08/17 13:19:29;;;;;;;11.27;4.57;;;38.30;97.90;;;;;;6212821;23;19997;-76
2022/08/17 13:21:57;;;;;;;9.00;4.97;;;38.40;97.70;;;;;;6212457;23;20015;-76
2022/08/17 13:24:29;;;;;;;7.63;5.10;;;38.40;97.20;;;;;;6212326;23;19997;-74
2022/08/17 13:26:58;;;;;;;9.77;4.88;;;38.80;97.10;;;;;;6210684;23;20004;-75
2022/08/17 13:29:35;;;;;;;7.05;4.13;;;39.50;96.40;;;;;;6212674;23;20083;-76
2022/08/17 13:32:07;;;;;;;9.45;4.85;;;40.60;94.80;;;;;;6212275;23;20008;-75
2022/08/17 13:34:40;;;;;;;9.85;4.10;;;40.90;93.60;;;;;;6212496;23;20129;-75
2022/08/17 13:39:50;;;;;;;9.98;5.00;;;42.00;91.80;;;;;;6212403;23;20228;-75
2022/08/17 13:42:40;;;;;;;10.15;4.43;;;41.10;91.70;;;;;;6212392;23;20355;-75
2022/08/17 13:45:36;;;;;;;14.07;5.10;;;40.80;92.10;;;;;;6212719;23;20005;-75
2022/08/17 13:48:24;;;;;;;10.57;4.47;;;40.70;92.20;;;;;;6200673;23;20005;-75
2022/08/17 13:50:56;;;;;;;8.65;4.32;;;41.00;91.90;;;;;;6214637;23;20339;-76